Time;durP1;ratioP1;P1;durP2;ratioP2;P2;SDS_P1;SDS_P2;PMS_P1;PMS_P2;Temp;Humidity;BMP_temperature;BMP_pressure;BME280_temperature;BME280_humidity;BME280_pressure;Samples;Min_cycle;Max_cycle;Signal;HPM_P1;HPM_P2
2021/12/21 00:00:44;;;;;;;11.23;7.90;;;-0.90;96.30;;;;;;4880718;29;20474;-79
2021/12/21 00:03:10;;;;;;;12.83;7.90;;;-0.90;96.30;;;;;;4879473;29;20482;-79
2021/12/21 00:05:37;;;;;;;12.90;7.40;;;-0.90;96.30;;;;;;4879330;29;20815;-79
2021/12/21 00:08:07;;;;;;;8.80;6.93;;;-0.90;96.30;;;;;;4880477;29;20502;-79
2021/12/21 00:10:33;;;;;;;15.33;7.97;;;-0.90;96.30;;;;;;4879282;29;20418;-79
2021/12/21 00:18:06;;;;;;;16.10;8.90;;;-0.90;96.30;;;;;;4880717;29;20580;-79
2021/12/21 00:20:50;;;;;;;16.60;8.60;;;-0.80;96.30;;;;;;4879184;29;20562;-80
2021/12/21 00:25:42;;;;;;;14.03;8.87;;;-0.80;96.30;;;;;;4880452;29;20422;-80
2021/12/21 00:28:07;;;;;;;15.40;9.00;;;-0.70;96.30;;;;;;4903579;29;20418;-80
2021/12/21 00:30:33;;;;;;;14.00;9.03;;;-0.70;96.30;;;;;;4922850;29;20252;-80
2021/12/21 00:32:58;;;;;;;15.30;8.90;;;-0.80;96.30;;;;;;4907451;29;20181;-80
2021/12/21 00:35:24;;;;;;;13.37;10.10;;;-0.70;96.30;;;;;;4902698;29;20205;-79
2021/12/21 00:37:50;;;;;;;14.13;10.33;;;-0.80;96.30;;;;;;4894713;29;20214;-78
2021/12/21 00:40:15;;;;;;;16.07;9.57;;;-0.80;96.30;;;;;;4881767;29;20670;-79
2021/12/21 00:42:41;;;;;;;15.50;10.20;;;-0.80;96.30;;;;;;4879998;29;20205;-79
2021/12/21 00:45:07;;;;;;;22.10;10.73;;;-0.80;96.30;;;;;;4880084;29;20182;-79
2021/12/21 00:47:35;;;;;;;15.00;11.33;;;-0.80;96.30;;;;;;4880906;29;20178;-79
2021/12/21 00:50:03;;;;;;;21.37;9.83;;;-0.80;96.30;;;;;;4884471;29;20514;-79
2021/12/21 00:52:29;;;;;;;12.77;10.00;;;-0.80;96.30;;;;;;4884369;29;20808;-79
2021/12/21 00:54:55;;;;;;;15.17;10.57;;;-0.80;96.30;;;;;;4883311;29;20422;-79
2021/12/21 00:57:20;;;;;;;16.93;10.10;;;-0.80;96.30;;;;;;4878565;29;20469;-79
2021/12/21 00:59:46;;;;;;;12.60;9.63;;;-0.80;96.30;;;;;;4880035;29;20197;-79
2021/12/21 05:02:05;;;;;;;19.60;11.70;;;-1.20;96.30;;;;;;5108463;23;21024;-78
2021/12/21 05:04:30;;;;;;;14.50;10.93;;;-1.20;96.30;;;;;;4898450;29;20426;-78
2021/12/21 05:06:56;;;;;;;21.23;11.87;;;-1.20;96.30;;;;;;4900007;29;20185;-78
2021/12/21 05:09:25;;;;;;;17.80;10.50;;;-1.20;96.30;;;;;;4898804;29;20184;-78
2021/12/21 05:11:53;;;;;;;21.87;11.07;;;-1.20;96.30;;;;;;4885201;29;20229;-78
2021/12/21 05:14:19;;;;;;;16.83;10.50;;;-1.20;96.30;;;;;;4881737;29;20465;-78
2021/12/21 05:16:45;;;;;;;19.10;11.90;;;-1.20;96.30;;;;;;4882673;29;20473;-78
2021/12/21 05:19:10;;;;;;;14.90;10.87;;;-1.20;96.30;;;;;;4885614;29;20174;-78
2021/12/21 05:21:36;;;;;;;16.67;11.00;;;-1.20;96.30;;;;;;4885123;29;20197;-79
2021/12/21 05:24:02;;;;;;;20.47;11.77;;;-1.20;96.30;;;;;;4883448;29;20272;-79
2021/12/21 05:26:27;;;;;;;12.90;10.17;;;-1.20;96.30;;;;;;4884589;29;20249;-79
2021/12/21 05:28:53;;;;;;;17.27;11.30;;;-1.30;96.30;;;;;;4883990;29;20494;-79
2021/12/21 05:31:18;;;;;;;15.10;10.33;;;-1.30;96.30;;;;;;4885266;29;20794;-79
2021/12/21 05:33:45;;;;;;;16.20;10.50;;;-1.30;96.30;;;;;;4864758;29;20201;-80
2021/12/21 05:36:11;;;;;;;21.87;10.80;;;-1.30;96.30;;;;;;4863279;29;20202;-77
2021/12/21 05:38:36;;;;;;;15.27;9.83;;;-1.30;96.30;;;;;;4868429;29;20431;-78
2021/12/21 05:41:06;;;;;;;17.03;11.13;;;-1.30;96.30;;;;;;4877750;29;20197;-78
2021/12/21 05:43:31;;;;;;;13.80;10.43;;;-1.30;96.30;;;;;;4877926;29;20186;-77
2021/12/21 05:45:57;;;;;;;15.27;9.93;;;-1.20;96.30;;;;;;4878302;29;20513;-76
2021/12/21 05:48:23;;;;;;;14.10;9.00;;;-1.20;96.30;;;;;;4878793;29;20661;-76
2021/12/21 05:50:48;;;;;;;16.43;10.40;;;-1.20;96.30;;;;;;4878750;29;20206;-76
2021/12/21 05:53:14;;;;;;;14.43;9.80;;;-1.20;96.30;;;;;;4878816;29;20186;-77
2021/12/21 05:55:39;;;;;;;16.37;10.43;;;-1.20;96.30;;;;;;4878601;29;20674;-76
2021/12/21 05:58:05;;;;;;;15.77;10.20;;;-1.20;96.30;;;;;;4877188;29;20173;-77
2021/12/21 06:00:33;;;;;;;17.20;10.40;;;-1.20;96.30;;;;;;4878497;29;20461;-76
2021/12/21 06:02:59;;;;;;;17.70;10.00;;;-1.20;96.30;;;;;;4878663;29;20182;-76
2021/12/21 06:05:25;;;;;;;22.17;12.00;;;-1.20;96.30;;;;;;4878660;29;20952;-76
2021/12/21 06:07:53;;;;;;;15.90;9.83;;;-1.20;96.30;;;;;;4878084;29;20551;-75
2021/12/21 06:10:29;;;;;;;19.70;9.73;;;-1.20;96.30;;;;;;4878236;29;20261;-76
2021/12/21 06:16:08;;;;;;;19.57;11.27;;;-1.20;96.30;;;;;;4857254;29;20557;-77
2021/12/21 06:26:47;;;;;;;16.30;9.33;;;-1.40;96.30;;;;;;4876426;29;20797;-75
2021/12/21 06:29:13;;;;;;;19.97;11.60;;;-1.40;96.30;;;;;;4873288;29;20415;-76
2021/12/21 06:31:40;;;;;;;18.47;11.77;;;-1.40;96.30;;;;;;4867479;29;20197;-76
2021/12/21 06:34:06;;;;;;;15.63;11.40;;;-1.40;96.30;;;;;;4873237;29;20252;-76
2021/12/21 06:36:32;;;;;;;18.53;10.90;;;-1.30;96.30;;;;;;4877375;29;20545;-76
2021/12/21 06:38:58;;;;;;;16.73;11.30;;;-1.30;96.30;;;;;;4871613;29;20178;-75
2021/12/21 06:41:24;;;;;;;19.47;10.87;;;-1.30;96.30;;;;;;4866622;29;20445;-75
2021/12/21 06:43:49;;;;;;;18.37;11.40;;;-1.30;96.30;;;;;;4864707;29;20411;-77
2021/12/21 06:46:40;;;;;;;17.43;13.10;;;-1.30;96.30;;;;;;4866771;29;20574;-76
2021/12/21 06:51:50;;;;;;;23.63;12.70;;;-1.40;96.30;;;;;;4881939;29;20468;-77
2021/12/21 06:54:16;;;;;;;17.70;12.37;;;-1.40;96.30;;;;;;4896092;29;20426;-77
2021/12/21 06:56:41;;;;;;;24.93;14.00;;;-1.40;96.30;;;;;;4895937;29;20476;-77
2021/12/21 06:59:07;;;;;;;19.93;14.50;;;-1.40;96.30;;;;;;4896362;29;20178;-77
2021/12/21 07:01:33;;;;;;;22.23;14.13;;;-1.50;96.30;;;;;;4881881;29;20212;-77
2021/12/21 07:03:59;;;;;;;23.80;13.50;;;-1.50;96.30;;;;;;4889706;29;20547;-77
2021/12/21 07:06:25;;;;;;;30.17;13.43;;;-1.50;96.30;;;;;;4876476;29;20427;-77
2021/12/21 07:09:20;;;;;;;18.53;13.63;;;-1.50;96.30;;;;;;4881614;29;20646;-77
2021/12/21 07:11:46;;;;;;;24.80;15.27;;;-1.50;96.30;;;;;;4896637;29;20461;-77
2021/12/21 07:19:42;;;;;;;37.37;16.13;;;-1.50;96.30;;;;;;4881428;29;20402;-78
2021/12/21 07:22:08;;;;;;;27.47;16.43;;;-1.50;96.30;;;;;;4881277;29;20430;-77
2021/12/21 07:24:34;;;;;;;24.87;15.33;;;-1.50;96.30;;;;;;4881376;29;20407;-77
2021/12/21 07:27:00;;;;;;;27.10;16.40;;;-1.40;96.30;;;;;;4881213;29;20849;-78
2021/12/21 07:29:25;;;;;;;30.80;15.90;;;-1.40;96.30;;;;;;4881349;29;20422;-77
2021/12/21 07:31:51;;;;;;;22.33;16.00;;;-1.40;96.30;;;;;;4881178;29;20201;-77
2021/12/21 07:34:17;;;;;;;24.40;14.00;;;-1.40;96.30;;;;;;4881240;29;20178;-77
2021/12/21 07:36:43;;;;;;;26.50;15.50;;;-1.40;96.30;;;;;;4880795;29;20453;-77
2021/12/21 07:39:11;;;;;;;20.80;14.00;;;-1.40;96.30;;;;;;4881179;29;20204;-77
2021/12/21 07:41:36;;;;;;;40.13;16.70;;;-1.30;96.30;;;;;;4895394;29;20233;-76
2021/12/21 07:44:02;;;;;;;22.67;15.07;;;-1.30;96.30;;;;;;4871277;29;20844;-77
2021/12/21 07:46:28;;;;;;;20.33;13.57;;;-1.30;96.30;;;;;;4863849;29;20658;-77
2021/12/21 07:48:54;;;;;;;24.53;15.70;;;-1.30;96.30;;;;;;4869926;29;20651;-77
2021/12/21 07:51:19;;;;;;;26.70;15.70;;;-1.20;96.30;;;;;;4862253;29;20229;-77
2021/12/21 07:53:45;;;;;;;28.20;16.63;;;-1.20;96.30;;;;;;4862448;29;20254;-77
2021/12/21 07:56:11;;;;;;;22.90;15.00;;;-1.20;96.30;;;;;;4861369;29;20230;-78
2021/12/21 07:58:37;;;;;;;27.77;14.73;;;-1.20;96.30;;;;;;4861077;29;20542;-77
2021/12/21 08:01:04;;;;;;;22.90;15.20;;;-1.10;96.30;;;;;;4861955;29;20293;-77
2021/12/21 08:03:34;;;;;;;30.33;13.87;;;-1.10;96.30;;;;;;4860969;29;20629;-77
2021/12/21 08:06:03;;;;;;;23.03;13.87;;;-1.20;96.30;;;;;;4861847;29;20975;-77
2021/12/21 08:08:30;;;;;;;24.07;15.50;;;-1.30;96.30;;;;;;4862072;29;20466;-77
2021/12/21 08:13:42;;;;;;;24.33;15.17;;;-1.30;96.30;;;;;;4862307;29;20940;-77
2021/12/21 08:16:08;;;;;;;29.40;16.63;;;-1.30;96.30;;;;;;4865823;29;20450;-77
2021/12/21 08:18:34;;;;;;;26.13;14.37;;;-1.20;96.30;;;;;;4880406;29;20925;-77
2021/12/21 08:20:59;;;;;;;22.20;15.03;;;-1.20;96.30;;;;;;4894665;29;20442;-77
2021/12/21 08:23:26;;;;;;;28.10;16.23;;;-1.10;96.30;;;;;;4880364;29;20775;-77
2021/12/21 08:25:52;;;;;;;21.57;15.33;;;-1.00;96.30;;;;;;4894360;29;20657;-77
2021/12/21 08:28:18;;;;;;;29.27;17.30;;;-0.90;96.30;;;;;;4894594;29;20430;-77
2021/12/21 08:30:44;;;;;;;30.53;17.63;;;-0.80;96.30;;;;;;4880134;29;20444;-77
2021/12/21 08:33:09;;;;;;;29.27;17.37;;;-0.70;96.30;;;;;;4880132;29;20185;-77
2021/12/21 08:35:35;;;;;;;22.90;16.60;;;-0.60;96.30;;;;;;4894312;29;20209;-77
2021/12/21 08:38:05;;;;;;;28.70;19.20;;;-0.60;96.30;;;;;;4879867;29;20650;-77
2021/12/21 08:40:38;;;;;;;28.43;16.90;;;-0.60;96.30;;;;;;4880095;29;20596;-77
2021/12/21 08:43:07;;;;;;;32.60;17.80;;;-0.50;96.30;;;;;;4894285;29;20423;-77
2021/12/21 08:45:34;;;;;;;32.60;18.20;;;-0.50;96.30;;;;;;4894264;29;20430;-77
2021/12/21 08:48:00;;;;;;;32.23;19.20;;;-0.50;96.30;;;;;;4876884;29;20449;-77
2021/12/21 08:50:26;;;;;;;34.43;19.57;;;-0.50;96.30;;;;;;4860075;29;20474;-77
2021/12/21 08:52:52;;;;;;;31.47;18.57;;;-0.30;96.30;;;;;;4882892;29;20216;-78
2021/12/21 08:55:18;;;;;;;32.47;17.97;;;-0.30;96.30;;;;;;4879379;29;20186;-76
2021/12/21 08:57:44;;;;;;;36.57;20.73;;;-0.30;96.30;;;;;;4884941;29;21029;-76
2021/12/21 09:00:11;;;;;;;27.37;18.60;;;-0.10;96.30;;;;;;4883256;29;20430;-76
2021/12/21 09:02:37;;;;;;;24.57;16.93;;;-0.10;96.30;;;;;;4881105;29;20426;-76
2021/12/21 09:05:12;;;;;;;26.63;16.90;;;-0.10;96.30;;;;;;4876308;29;20915;-76
2021/12/21 09:07:45;;;;;;;26.63;16.40;;;-0.10;96.30;;;;;;4875321;29;20425;-76
2021/12/21 09:10:12;;;;;;;26.20;15.80;;;-0.20;96.30;;;;;;4873900;29;20505;-76
2021/12/21 09:12:38;;;;;;;19.50;12.93;;;-0.30;96.30;;;;;;4875925;29;20556;-76
2021/12/21 09:15:06;;;;;;;25.80;16.03;;;-0.50;96.30;;;;;;4899056;29;20777;-76
2021/12/21 09:17:32;;;;;;;24.27;15.07;;;-0.60;96.30;;;;;;4895212;29;20469;-76
2021/12/21 09:19:57;;;;;;;25.10;14.60;;;-0.60;96.30;;;;;;4878930;29;20426;-76
2021/12/21 09:22:24;;;;;;;25.87;14.47;;;-0.70;96.30;;;;;;4880117;29;20193;-76
2021/12/21 09:24:49;;;;;;;23.80;13.30;;;-0.70;96.30;;;;;;4881059;29;20269;-76
2021/12/21 09:27:16;;;;;;;23.87;14.90;;;-0.70;96.30;;;;;;4895102;29;20518;-76
2021/12/21 09:29:42;;;;;;;19.67;12.83;;;-0.80;96.30;;;;;;4894443;29;20182;-78
2021/12/21 09:32:13;;;;;;;21.87;13.20;;;-0.80;96.30;;;;;;4879117;29;20438;-78
2021/12/21 09:34:42;;;;;;;16.37;11.03;;;-0.80;96.30;;;;;;4879255;29;20402;-78
2021/12/21 09:37:14;;;;;;;16.67;11.37;;;-0.70;96.30;;;;;;4893168;29;20514;-78
2021/12/21 09:39:41;;;;;;;16.17;9.90;;;-0.60;96.30;;;;;;4879078;29;20414;-78
2021/12/21 09:42:07;;;;;;;18.13;9.80;;;-0.60;96.30;;;;;;4878979;29;20453;-78
2021/12/21 09:44:33;;;;;;;19.17;8.93;;;-0.50;96.30;;;;;;4893318;29;20990;-78
2021/12/21 09:46:59;;;;;;;10.90;6.43;;;-0.50;96.30;;;;;;4893063;29;20186;-78
2021/12/21 09:49:25;;;;;;;15.00;7.83;;;-0.50;96.30;;;;;;4879010;29;20822;-79
2021/12/21 09:51:51;;;;;;;17.70;6.40;;;-0.40;96.30;;;;;;4878636;29;20444;-78
2021/12/21 09:54:18;;;;;;;8.00;5.47;;;-0.30;96.30;;;;;;4878936;29;20181;-78
2021/12/21 09:56:44;;;;;;;10.83;7.40;;;-0.20;96.30;;;;;;4886313;29;20201;-78
2021/12/21 09:59:10;;;;;;;7.80;5.30;;;-0.20;96.30;;;;;;4878752;29;20425;-78
2021/12/21 10:01:36;;;;;;;15.33;6.27;;;-0.10;96.30;;;;;;4878802;29;20216;-78
2021/12/21 10:04:02;;;;;;;9.53;5.73;;;0.00;96.30;;;;;;4896714;29;20414;-78
2021/12/21 10:06:27;;;;;;;13.13;5.10;;;0.20;96.30;;;;;;4886439;29;20181;-78
2021/12/21 10:09:05;;;;;;;11.20;4.60;;;0.30;96.30;;;;;;4877761;29;20181;-78
2021/12/21 10:11:41;;;;;;;8.87;4.97;;;0.60;96.30;;;;;;4878726;29;20189;-78
2021/12/21 10:14:07;;;;;;;11.63;5.47;;;0.80;96.30;;;;;;4878776;29;20418;-78
2021/12/21 10:16:32;;;;;;;7.60;4.87;;;0.80;96.30;;;;;;4877145;29;21001;-78
2021/12/21 10:18:59;;;;;;;12.13;5.57;;;0.90;96.30;;;;;;4879149;29;20194;-79
2021/12/21 10:21:24;;;;;;;5.77;3.70;;;1.00;96.30;;;;;;4890078;29;20441;-78
2021/12/21 10:23:51;;;;;;;6.53;3.87;;;0.90;96.30;;;;;;4887243;29;20197;-78
2021/12/21 10:26:29;;;;;;;5.77;3.83;;;0.70;96.30;;;;;;4874572;29;20188;-78
2021/12/21 10:28:59;;;;;;;5.03;3.10;;;0.40;96.30;;;;;;4872508;29;20429;-78
2021/12/21 10:31:32;;;;;;;7.40;3.40;;;0.30;96.30;;;;;;4897156;29;20473;-78
2021/12/21 10:33:59;;;;;;;4.87;3.47;;;0.30;96.30;;;;;;4878962;29;20835;-78
2021/12/21 10:36:26;;;;;;;12.67;4.50;;;0.10;96.30;;;;;;4892507;29;20466;-78
2021/12/21 10:38:56;;;;;;;5.80;3.00;;;-0.10;96.30;;;;;;4892614;29;20488;-78
2021/12/21 10:41:35;;;;;;;5.87;4.10;;;-0.10;96.30;;;;;;4887837;29;20812;-78
2021/12/21 10:44:11;;;;;;;7.00;3.30;;;0.00;96.30;;;;;;4911538;29;20425;-78
2021/12/21 10:46:40;;;;;;;9.27;4.33;;;0.10;96.30;;;;;;4894195;29;20454;-78
2021/12/21 10:49:09;;;;;;;12.50;5.10;;;0.20;96.30;;;;;;4878538;29;20406;-77
2021/12/21 10:51:36;;;;;;;13.00;4.80;;;0.20;96.30;;;;;;4892752;29;20454;-76
2021/12/21 10:54:02;;;;;;;6.57;4.20;;;0.20;96.30;;;;;;4875930;29;20426;-78
2021/12/21 10:56:27;;;;;;;6.07;4.47;;;0.20;96.30;;;;;;4877313;29;20516;-78
2021/12/21 10:58:53;;;;;;;9.07;5.13;;;0.30;96.30;;;;;;4910105;29;20436;-77
2021/12/21 11:01:27;;;;;;;8.03;4.93;;;0.20;96.30;;;;;;4896754;29;20263;-77
2021/12/21 11:03:55;;;;;;;7.00;4.17;;;0.30;96.30;;;;;;4911015;29;20177;-77
2021/12/21 11:06:25;;;;;;;8.67;4.70;;;0.20;96.30;;;;;;4896566;29;20413;-77
2021/12/21 11:08:54;;;;;;;9.77;5.20;;;0.20;96.30;;;;;;4896803;29;20409;-78
2021/12/21 11:11:21;;;;;;;11.40;5.10;;;0.20;96.30;;;;;;4896630;29;20448;-78
2021/12/21 11:13:58;;;;;;;9.70;5.10;;;0.20;96.30;;;;;;4911337;29;20508;-78
2021/12/21 11:16:31;;;;;;;7.60;4.70;;;0.00;96.30;;;;;;4910746;29;20456;-78
2021/12/21 11:18:57;;;;;;;11.37;4.03;;;-0.10;96.30;;;;;;4897121;29;20426;-77
2021/12/21 11:21:22;;;;;;;10.30;5.07;;;-0.20;96.30;;;;;;4893646;29;20521;-77
2021/12/21 11:23:48;;;;;;;5.87;4.10;;;-0.10;96.30;;;;;;4892399;29;20182;-77
2021/12/21 11:26:14;;;;;;;10.03;4.83;;;-0.10;96.30;;;;;;4878577;29;20216;-77
2021/12/21 11:28:39;;;;;;;6.60;3.87;;;0.00;96.30;;;;;;4878110;29;20185;-77
2021/12/21 11:41:44;;;;;;;7.37;3.10;;;0.40;96.30;;;;;;5158422;23;20501;-78
2021/12/21 11:44:18;;;;;;;4.07;2.90;;;0.30;96.30;;;;;;4877888;29;20426;-78
2021/12/21 11:47:01;;;;;;;5.23;3.50;;;0.30;96.30;;;;;;4878990;29;20418;-78
2021/12/21 11:49:42;;;;;;;11.47;3.00;;;0.20;96.30;;;;;;4881228;29;20763;-78
2021/12/21 11:52:13;;;;;;;3.70;2.67;;;0.20;96.30;;;;;;4880968;29;20463;-78
2021/12/21 11:55:06;;;;;;;3.17;2.27;;;0.20;96.30;;;;;;4880994;29;20470;-78
2021/12/21 11:57:48;;;;;;;6.27;2.57;;;0.20;96.30;;;;;;4871677;29;20489;-78
2021/12/21 12:00:34;;;;;;;3.20;2.10;;;0.20;96.30;;;;;;4879045;29;20429;-78
2021/12/21 12:03:15;;;;;;;5.40;3.10;;;0.20;96.30;;;;;;4880601;29;20418;-78
2021/12/21 12:05:49;;;;;;;8.70;3.03;;;0.20;96.30;;;;;;4880624;29;20453;-79
2021/12/21 12:08:14;;;;;;;4.50;2.60;;;0.20;96.30;;;;;;4879210;29;20411;-78
2021/12/21 12:10:54;;;;;;;5.30;2.53;;;0.30;96.30;;;;;;4879345;29;20537;-78
2021/12/21 12:13:34;;;;;;;6.70;2.63;;;0.20;96.30;;;;;;4865375;29;20170;-78
2021/12/21 12:16:12;;;;;;;3.97;2.40;;;0.30;96.30;;;;;;4861753;29;20509;-78
2021/12/21 12:18:47;;;;;;;4.00;2.50;;;0.30;96.30;;;;;;4878450;29;20426;-78
2021/12/21 12:21:21;;;;;;;6.63;2.67;;;0.30;96.30;;;;;;4879198;29;20472;-78
2021/12/21 12:24:00;;;;;;;3.60;2.10;;;0.30;96.30;;;;;;4879136;29;20792;-78
2021/12/21 12:26:27;;;;;;;7.60;3.20;;;0.30;96.30;;;;;;4879073;29;20438;-78
2021/12/21 12:29:09;;;;;;;4.73;2.53;;;0.30;96.30;;;;;;4880063;29;20406;-78
2021/12/21 12:31:37;;;;;;;6.83;3.20;;;0.30;96.30;;;;;;4861791;29;20443;-78
2021/12/21 12:34:03;;;;;;;4.77;2.60;;;0.10;96.30;;;;;;4861582;29;20427;-79
2021/12/21 12:36:37;;;;;;;4.00;2.20;;;0.10;96.30;;;;;;4861338;29;20463;-78
2021/12/21 12:39:04;;;;;;;7.73;3.20;;;0.10;96.30;;;;;;4860453;29;20528;-78
2021/12/21 12:41:32;;;;;;;4.20;3.27;;;0.20;96.30;;;;;;4861351;29;20458;-78
2021/12/21 12:43:58;;;;;;;4.63;3.30;;;0.20;96.30;;;;;;4860465;29;20403;-78
2021/12/21 12:46:28;;;;;;;3.37;2.73;;;0.20;96.30;;;;;;4861330;29;20467;-78
2021/12/21 12:48:53;;;;;;;5.57;2.90;;;0.10;96.30;;;;;;4861479;29;20641;-78
2021/12/21 12:51:34;;;;;;;4.37;2.83;;;0.00;96.30;;;;;;4874213;29;20493;-77
2021/12/21 12:54:00;;;;;;;4.87;2.70;;;-0.10;96.30;;;;;;4879889;29;20166;-78
2021/12/21 12:56:27;;;;;;;5.77;2.83;;;-0.10;96.30;;;;;;4878313;29;20466;-77
2021/12/21 12:59:00;;;;;;;4.90;2.53;;;-0.10;96.30;;;;;;4878550;29;20422;-78
2021/12/21 13:01:28;;;;;;;10.03;3.37;;;0.00;96.30;;;;;;4877801;29;20458;-77
2021/12/21 13:03:58;;;;;;;5.03;2.87;;;0.10;96.30;;;;;;4867286;29;20470;-78
2021/12/21 13:06:33;;;;;;;5.83;3.10;;;0.10;96.30;;;;;;4859251;29;20963;-78
2021/12/21 13:08:58;;;;;;;6.43;2.93;;;0.10;96.30;;;;;;4860820;29;20415;-78
2021/12/21 13:11:27;;;;;;;3.73;2.60;;;0.20;96.30;;;;;;4878044;29;21172;-77
2021/12/21 13:13:57;;;;;;;4.47;3.13;;;0.20;96.30;;;;;;4878617;29;20265;-78
2021/12/21 13:16:25;;;;;;;5.50;3.07;;;0.20;96.30;;;;;;4878867;29;20446;-77
2021/12/21 13:18:56;;;;;;;4.70;2.93;;;0.10;96.30;;;;;;4878820;29;20414;-77
2021/12/21 13:22:01;;;;;;;222.80;17.10;;;0.10;96.30;;;;;;4878106;29;20450;-77
2021/12/21 13:24:33;;;;;;;8.17;3.00;;;0.10;96.30;;;;;;4879373;29;20417;-77
2021/12/21 13:27:02;;;;;;;3.60;2.63;;;0.10;96.30;;;;;;4877777;29;20430;-78
2021/12/21 13:29:34;;;;;;;4.30;2.73;;;0.10;96.30;;;;;;4879484;29;20425;-77
2021/12/21 13:32:04;;;;;;;6.00;3.00;;;0.20;96.30;;;;;;4867548;29;20447;-78
2021/12/21 13:34:30;;;;;;;6.47;3.10;;;0.20;96.30;;;;;;4860308;29;20462;-78
2021/12/21 13:36:58;;;;;;;5.87;2.90;;;0.20;96.30;;;;;;4859902;29;20501;-78
2021/12/21 13:39:25;;;;;;;4.63;2.70;;;0.30;96.30;;;;;;4860432;29;20179;-78
2021/12/21 13:41:54;;;;;;;4.63;2.77;;;0.30;96.30;;;;;;4860053;29;20450;-77
2021/12/21 13:44:25;;;;;;;4.80;2.70;;;0.30;96.30;;;;;;4876702;29;20808;-78
2021/12/21 13:46:52;;;;;;;3.73;2.70;;;0.20;96.30;;;;;;4876417;29;20469;-78
2021/12/21 13:49:17;;;;;;;9.03;3.07;;;0.20;96.30;;;;;;4877965;29;20438;-77
2021/12/21 13:51:51;;;;;;;5.70;2.43;;;0.10;96.30;;;;;;4878727;29;20445;-77
2021/12/21 13:54:19;;;;;;;4.60;2.70;;;0.20;96.30;;;;;;4877197;29;20201;-77
2021/12/21 13:56:46;;;;;;;2.70;1.83;;;0.10;96.30;;;;;;4878388;29;20477;-77
2021/12/21 13:59:12;;;;;;;4.00;2.27;;;0.20;96.30;;;;;;4877472;29;20422;-76
2021/12/21 14:01:38;;;;;;;8.70;1.97;;;0.10;96.30;;;;;;4878793;29;20866;-76
2021/12/21 14:04:08;;;;;;;4.80;2.17;;;0.10;96.30;;;;;;4879024;29;20425;-76
2021/12/21 14:06:36;;;;;;;4.13;2.47;;;0.10;96.30;;;;;;4877776;29;20185;-76
2021/12/21 14:09:05;;;;;;;2.80;1.97;;;0.10;96.30;;;;;;4872650;29;20427;-76
2021/12/21 14:11:33;;;;;;;4.20;2.80;;;-0.10;96.30;;;;;;4868261;29;20963;-76
2021/12/21 14:14:01;;;;;;;6.73;2.57;;;-0.10;96.30;;;;;;4877315;29;20457;-76
2021/12/21 14:16:31;;;;;;;6.70;2.10;;;-0.10;96.30;;;;;;4878518;29;20465;-76
2021/12/21 14:18:59;;;;;;;3.20;2.33;;;-0.10;96.30;;;;;;4879026;29;20489;-76
2021/12/21 14:21:29;;;;;;;8.30;4.00;;;-0.10;96.30;;;;;;4878700;29;20438;-77
2021/12/21 14:23:58;;;;;;;6.57;4.67;;;-0.20;96.30;;;;;;4879266;29;20854;-76
2021/12/21 14:26:30;;;;;;;5.33;3.40;;;-0.30;96.30;;;;;;4878610;29;20475;-76
2021/12/21 14:29:00;;;;;;;8.53;4.00;;;-0.40;96.30;;;;;;4877426;29;20422;-76
2021/12/21 14:31:43;;;;;;;3.20;2.90;;;-0.40;96.30;;;;;;4878522;29;20449;-77
2021/12/21 14:34:09;;;;;;;4.33;2.47;;;-0.50;96.30;;;;;;4877352;29;20468;-77
2021/12/21 14:36:39;;;;;;;7.43;3.30;;;-0.50;96.30;;;;;;4875571;29;20565;-77
2021/12/21 14:39:09;;;;;;;6.70;3.00;;;-0.50;96.30;;;;;;4876978;29;20509;-76
2021/12/21 14:41:40;;;;;;;3.20;2.53;;;-0.60;96.30;;;;;;4878277;29;20505;-76
2021/12/21 14:44:10;;;;;;;6.00;3.50;;;-0.70;96.30;;;;;;4877215;29;20414;-77
2021/12/21 14:46:57;;;;;;;4.13;2.50;;;-0.70;96.30;;;;;;4878230;29;20978;-77
2021/12/21 14:49:32;;;;;;;7.80;3.10;;;-0.80;96.30;;;;;;4876990;29;20422;-77
2021/12/21 14:52:18;;;;;;;4.60;3.40;;;-0.80;96.30;;;;;;4878259;29;20452;-77
2021/12/21 14:54:52;;;;;;;5.80;3.70;;;-0.80;96.30;;;;;;4877984;29;20875;-77
2021/12/21 14:57:44;;;;;;;9.30;4.70;;;-0.80;96.30;;;;;;4858236;29;20513;-76
2021/12/21 15:00:11;;;;;;;8.70;4.80;;;-0.90;96.30;;;;;;4858473;29;20420;-77
2021/12/21 15:05:07;;;;;;;5.73;3.83;;;-1.00;96.30;;;;;;4859987;29;20411;-77
2021/12/21 15:07:36;;;;;;;6.00;4.30;;;-1.00;96.30;;;;;;4868478;29;20519;-78
2021/12/21 15:10:02;;;;;;;6.30;4.13;;;-1.00;96.30;;;;;;4883961;29;20438;-77
2021/12/21 15:12:28;;;;;;;7.47;4.73;;;-1.10;96.30;;;;;;4885834;29;20449;-78
2021/12/21 15:14:54;;;;;;;6.30;4.43;;;-1.10;96.30;;;;;;4888189;29;20444;-79
2021/12/21 15:17:20;;;;;;;5.40;4.40;;;-1.10;96.30;;;;;;4886589;29;20657;-78
2021/12/21 15:19:46;;;;;;;6.97;4.70;;;-1.10;96.30;;;;;;4884666;29;20512;-78
2021/12/21 15:22:12;;;;;;;9.60;4.60;;;-1.20;96.30;;;;;;4883820;29;20537;-77
2021/12/21 15:24:40;;;;;;;9.00;4.80;;;-1.10;96.30;;;;;;4882769;29;20241;-76
2021/12/21 15:27:07;;;;;;;9.43;5.47;;;-1.10;96.30;;;;;;4884601;29;20433;-76
2021/12/21 15:29:33;;;;;;;5.50;4.47;;;-1.20;96.30;;;;;;4885724;29;20577;-76
2021/12/21 15:31:59;;;;;;;11.30;4.70;;;-1.30;96.30;;;;;;4891748;29;20453;-76
2021/12/21 15:34:24;;;;;;;7.03;5.53;;;-1.30;96.30;;;;;;4884730;29;20450;-77
2021/12/21 15:36:51;;;;;;;12.40;5.77;;;-1.40;96.30;;;;;;4884419;29;20248;-77
2021/12/21 15:39:19;;;;;;;6.90;5.13;;;-1.50;96.30;;;;;;4892224;29;20545;-77
2021/12/21 15:41:47;;;;;;;8.70;5.50;;;-1.50;96.30;;;;;;4889952;29;20469;-76
2021/12/21 15:44:15;;;;;;;7.10;5.27;;;-1.50;96.30;;;;;;4882354;29;20432;-76
2021/12/21 15:46:41;;;;;;;9.60;5.10;;;-1.60;96.30;;;;;;4883803;29;20433;-76
2021/12/21 15:49:06;;;;;;;6.33;4.60;;;-1.70;96.30;;;;;;4885072;29;20494;-76
2021/12/21 15:51:32;;;;;;;9.00;4.70;;;-1.70;96.30;;;;;;4882253;29;20446;-77
2021/12/21 15:53:57;;;;;;;10.93;5.30;;;-1.80;96.30;;;;;;4882393;29;20192;-77
2021/12/21 15:56:23;;;;;;;7.20;4.40;;;-1.90;96.30;;;;;;4885425;29;20253;-77
2021/12/21 15:58:48;;;;;;;12.03;4.60;;;-1.90;96.30;;;;;;4883847;29;20185;-76
2021/12/21 16:01:14;;;;;;;9.27;4.50;;;-2.00;96.30;;;;;;4887713;29;20213;-76
2021/12/21 16:03:41;;;;;;;6.63;4.93;;;-1.90;96.30;;;;;;4884925;29;20177;-77
2021/12/21 16:06:09;;;;;;;9.10;5.07;;;-2.00;96.30;;;;;;4892508;29;20268;-77
2021/12/21 16:08:36;;;;;;;11.90;5.40;;;-2.00;96.30;;;;;;4890620;29;20434;-77
2021/12/21 16:11:01;;;;;;;72.67;46.83;;;-2.00;96.30;;;;;;4880495;29;20446;-76
2021/12/21 16:13:27;;;;;;;63.43;42.10;;;-1.90;96.30;;;;;;4880695;29;20438;-76
2021/12/21 16:15:53;;;;;;;8.50;6.87;;;-1.90;96.30;;;;;;4880070;29;20681;-77
2021/12/21 16:18:19;;;;;;;16.97;8.50;;;-1.90;96.30;;;;;;4880376;29;20665;-76
2021/12/21 16:20:45;;;;;;;13.20;5.13;;;-1.90;96.30;;;;;;4880547;29;20245;-76
2021/12/21 16:23:10;;;;;;;8.70;5.97;;;-1.80;96.30;;;;;;4879421;29;20234;-77
2021/12/21 16:25:36;;;;;;;7.90;6.27;;;-1.80;96.30;;;;;;4880496;29;20806;-76
2021/12/21 16:28:03;;;;;;;13.27;6.40;;;-1.80;96.30;;;;;;4880232;29;20184;-76
2021/12/21 16:30:46;;;;;;;10.50;6.70;;;-1.80;96.30;;;;;;4878935;29;20268;-77
2021/12/21 16:33:13;;;;;;;7.23;6.00;;;-1.80;96.30;;;;;;4880390;29;20482;-76
2021/12/21 16:35:39;;;;;;;15.15;6.20;;;-1.80;96.30;;;;;;4878979;29;20426;-80
2021/12/21 16:38:05;;;;;;;8.20;6.07;;;-1.80;96.30;;;;;;4880209;29;20415;-76
2021/12/21 16:40:31;;;;;;;13.83;7.50;;;-1.80;96.30;;;;;;4880217;29;20425;-77
2021/12/21 16:42:58;;;;;;;30.10;22.30;;;-1.80;96.30;;;;;;4880110;29;20249;-77
2021/12/21 16:45:24;;;;;;;10.73;7.30;;;-1.80;96.30;;;;;;4880141;29;20546;-78
2021/12/21 16:47:51;;;;;;;12.60;7.07;;;-1.80;96.30;;;;;;4879710;29;20872;-77
2021/12/21 16:50:16;;;;;;;8.97;7.33;;;-1.90;96.30;;;;;;4879882;29;20937;-78
2021/12/21 16:52:42;;;;;;;10.13;6.10;;;-1.80;96.30;;;;;;4880039;29;20414;-78
2021/12/21 16:55:08;;;;;;;11.00;7.27;;;-1.90;96.30;;;;;;4878821;29;20387;-76
2021/12/21 16:57:34;;;;;;;11.53;7.07;;;-1.80;96.30;;;;;;4878353;29;20201;-76
2021/12/21 17:00:00;;;;;;;13.07;7.77;;;-1.90;96.30;;;;;;4878679;29;20764;-77
2021/12/21 17:02:26;;;;;;;10.67;7.37;;;-1.90;96.30;;;;;;4878578;29;20201;-77
2021/12/21 17:04:53;;;;;;;13.23;9.03;;;-1.90;96.30;;;;;;4879755;29;20983;-78
2021/12/21 17:07:20;;;;;;;124.03;81.53;;;-1.90;96.30;;;;;;4879544;29;20414;-76
2021/12/21 17:09:45;;;;;;;29.30;14.40;;;-1.90;96.30;;;;;;4879507;29;20790;-76
2021/12/21 17:12:11;;;;;;;12.63;7.67;;;-1.90;96.30;;;;;;4879578;29;20433;-77
2021/12/21 17:14:36;;;;;;;13.63;8.27;;;-1.90;96.30;;;;;;4879630;29;20193;-76
2021/12/21 17:17:04;;;;;;;9.37;7.43;;;-1.90;96.30;;;;;;4878031;29;20210;-76
2021/12/21 17:19:29;;;;;;;14.33;8.70;;;-1.90;96.30;;;;;;4880211;29;20186;-78
2021/12/21 17:34:52;;;;;;;12.00;8.83;;;-1.90;96.30;;;;;;5709504;23;20481;-77
2021/12/21 17:37:18;;;;;;;12.93;7.70;;;-1.90;96.30;;;;;;4878946;29;20468;-77
2021/12/21 17:39:44;;;;;;;13.97;8.17;;;-1.90;96.30;;;;;;4878896;29;20177;-77
2021/12/21 17:42:12;;;;;;;11.27;7.93;;;-1.90;96.30;;;;;;4879048;29;20434;-76